createdAt,value
2018-07-20T00:01:41.433Z,5.57
2018-07-20T00:04:09.705Z,9.30
2018-07-20T00:06:37.993Z,7.23
2018-07-20T00:09:07.368Z,6.77
2018-07-20T00:11:35.684Z,7.67
2018-07-20T00:14:03.996Z,5.77
2018-07-20T00:16:32.800Z,6.10
2018-07-20T00:19:00.994Z,6.23
2018-07-20T00:21:29.218Z,7.33
2018-07-20T00:23:57.441Z,8.63
2018-07-20T00:26:25.715Z,7.47
2018-07-20T00:28:53.987Z,11.87
2018-07-20T00:31:22.218Z,13.97
2018-07-20T00:33:51.188Z,7.10
2018-07-20T00:36:19.515Z,6.80
2018-07-20T00:38:47.751Z,10.30
2018-07-20T00:41:15.977Z,7.80
2018-07-20T00:43:44.527Z,9.70
2018-07-20T00:46:12.760Z,7.60
2018-07-20T00:48:40.973Z,10.40
2018-07-20T00:51:09.252Z,10.90
2018-07-20T00:53:37.499Z,8.53
2018-07-20T00:56:05.851Z,7.63
2018-07-20T00:58:34.193Z,8.00
2018-07-20T01:01:02.584Z,7.17
2018-07-20T01:03:30.872Z,8.73
2018-07-20T01:05:59.133Z,9.53
2018-07-20T01:08:27.457Z,9.33
2018-07-20T01:10:55.691Z,8.40
2018-07-20T01:13:23.944Z,9.00
2018-07-20T01:15:52.308Z,7.50
2018-07-20T01:18:20.520Z,10.80
2018-07-20T01:20:55.209Z,7.30
2018-07-20T01:23:23.448Z,7.70
2018-07-20T01:25:51.678Z,7.63
2018-07-20T01:28:19.871Z,8.97
2018-07-20T01:30:48.124Z,8.10
2018-07-20T01:33:16.331Z,7.57
2018-07-20T01:35:44.657Z,10.50
2018-07-20T01:38:12.912Z,9.00
2018-07-20T01:40:41.108Z,8.47
2018-07-20T01:43:09.639Z,11.03
2018-07-20T01:45:37.876Z,9.53
2018-07-20T01:48:06.185Z,9.57
2018-07-20T01:50:34.467Z,8.93
2018-07-20T01:53:02.761Z,7.70
2018-07-20T01:55:31.037Z,8.07
2018-07-20T01:57:59.374Z,7.10
2018-07-20T02:00:27.538Z,10.27
2018-07-20T02:02:55.797Z,9.43
2018-07-20T02:05:24.027Z,7.60
2018-07-20T02:07:52.296Z,7.37
2018-07-20T02:10:20.603Z,9.73
2018-07-20T02:12:48.885Z,7.87
2018-07-20T02:15:17.164Z,8.23
2018-07-20T02:17:45.501Z,8.47
2018-07-20T02:20:13.696Z,11.17
2018-07-20T02:22:42.333Z,7.67
2018-07-20T02:25:10.585Z,8.27
2018-07-20T02:27:38.764Z,9.23
2018-07-20T02:30:07.305Z,8.77
2018-07-20T02:32:35.563Z,10.27
2018-07-20T02:35:03.823Z,9.57
2018-07-20T02:37:32.068Z,10.77
2018-07-20T02:40:00.320Z,9.37
2018-07-20T02:42:28.532Z,8.43
2018-07-20T02:44:56.748Z,8.33
2018-07-20T02:47:24.960Z,8.97
2018-07-20T02:49:53.188Z,9.63
2018-07-20T02:52:21.422Z,8.23
2018-07-20T02:54:49.688Z,10.67
2018-07-20T02:57:18.059Z,7.33
2018-07-20T02:59:46.245Z,8.20
2018-07-20T03:02:14.512Z,10.87
2018-07-20T03:04:42.781Z,8.10
2018-07-20T03:07:11.010Z,7.63
2018-07-20T03:09:39.233Z,12.47
2018-07-20T03:12:07.476Z,9.80
2018-07-20T03:14:35.720Z,7.80
2018-07-20T03:17:04.001Z,7.53
2018-07-20T03:19:32.249Z,9.43
2018-07-20T03:22:00.506Z,7.03
2018-07-20T03:24:28.827Z,10.73
2018-07-20T03:26:57.046Z,7.80
2018-07-20T03:29:25.336Z,9.47
2018-07-20T03:31:53.564Z,11.77
2018-07-20T03:34:21.825Z,10.00
2018-07-20T03:36:50.032Z,9.97
2018-07-20T03:39:18.257Z,9.23
2018-07-20T03:41:46.636Z,10.20
2018-07-20T03:44:14.898Z,11.03
2018-07-20T03:46:43.130Z,12.33
2018-07-20T03:49:11.332Z,11.23
2018-07-20T03:51:39.539Z,10.23
2018-07-20T03:54:07.827Z,9.10
2018-07-20T03:56:36.077Z,9.70
2018-07-20T03:59:04.316Z,9.37
2018-07-20T04:01:32.595Z,10.17
2018-07-20T04:04:00.804Z,11.63
2018-07-20T04:06:29.055Z,10.53
2018-07-20T04:08:57.316Z,10.03
2018-07-20T04:11:25.699Z,10.83
2018-07-20T04:13:53.947Z,13.20
2018-07-20T04:16:22.171Z,9.50
2018-07-20T04:18:50.516Z,9.93
2018-07-20T04:21:18.779Z,12.77
2018-07-20T04:23:47.011Z,10.17
2018-07-20T04:26:15.235Z,10.20
2018-07-20T04:28:43.483Z,10.03
2018-07-20T04:31:11.754Z,7.73
2018-07-20T04:33:39.963Z,12.00
2018-07-20T04:36:08.185Z,8.40
2018-07-20T04:38:36.447Z,11.60
2018-07-20T04:41:04.670Z,10.43
2018-07-20T04:43:32.907Z,13.23
2018-07-20T04:46:01.251Z,11.13
2018-07-20T04:48:29.437Z,9.70
2018-07-20T04:50:57.744Z,15.07
2018-07-20T04:53:25.983Z,10.03
2018-07-20T04:55:54.320Z,12.77
2018-07-20T04:58:22.547Z,10.77
2018-07-20T05:00:51.233Z,10.90
2018-07-20T05:03:19.449Z,9.40
2018-07-20T05:05:47.804Z,11.33
2018-07-20T05:08:15.955Z,12.30
2018-07-20T05:10:44.200Z,9.60
2018-07-20T05:13:12.532Z,10.27
2018-07-20T05:15:40.799Z,11.13
2018-07-20T05:18:09.029Z,10.90
2018-07-20T05:20:37.227Z,10.00
2018-07-20T05:23:05.440Z,9.77
2018-07-20T05:25:33.632Z,10.03
2018-07-20T05:28:02.029Z,9.47
2018-07-20T05:30:30.238Z,13.00
2018-07-20T05:32:58.441Z,10.57
2018-07-20T05:35:26.704Z,9.27
2018-07-20T05:37:54.930Z,11.60
2018-07-20T05:40:23.152Z,9.90
2018-07-20T05:42:51.359Z,10.70
2018-07-20T05:45:19.594Z,10.37
2018-07-20T05:47:47.800Z,9.27
2018-07-20T05:50:16.060Z,14.57
2018-07-20T05:52:44.256Z,13.93
2018-07-20T05:55:12.550Z,11.03
2018-07-20T05:57:40.803Z,9.53
2018-07-20T06:00:09.052Z,11.53
2018-07-20T06:02:37.267Z,11.57
2018-07-20T06:05:05.508Z,11.30
2018-07-20T06:07:33.713Z,10.47
2018-07-20T06:10:01.905Z,11.30
2018-07-20T06:12:30.120Z,9.93
2018-07-20T06:14:58.320Z,10.17
2018-07-20T06:17:26.637Z,10.83
2018-07-20T06:19:54.841Z,9.93
2018-07-20T06:22:23.136Z,10.07
2018-07-20T06:24:51.395Z,8.67
2018-07-20T06:27:19.689Z,10.93
2018-07-20T06:29:47.937Z,12.13
2018-07-20T06:32:16.220Z,15.40
2018-07-20T06:34:45.292Z,12.77
2018-07-20T06:37:13.610Z,8.40
2018-07-20T06:39:41.840Z,13.07
2018-07-20T06:42:10.102Z,12.60
2018-07-20T06:44:38.412Z,9.47
2018-07-20T06:47:06.770Z,10.33
2018-07-20T06:49:35.220Z,7.40
2018-07-20T06:52:03.444Z,7.90
2018-07-20T06:54:31.704Z,9.13
2018-07-20T06:56:59.926Z,8.60
2018-07-20T06:59:28.948Z,10.47
2018-07-20T07:01:57.176Z,8.57
2018-07-20T07:04:25.412Z,14.83
2018-07-20T07:06:54.259Z,9.63
2018-07-20T07:09:22.587Z,11.23
2018-07-20T07:11:50.809Z,9.63
2018-07-20T07:14:19.016Z,10.47
2018-07-20T07:16:47.324Z,11.87
2018-07-20T07:19:15.536Z,8.93
2018-07-20T07:21:43.767Z,11.77
2018-07-20T07:24:12.471Z,9.27
2018-07-20T07:26:40.465Z,10.93
2018-07-20T07:29:08.728Z,11.50
2018-07-20T07:31:36.915Z,11.03
2018-07-20T07:34:05.219Z,14.87
2018-07-20T07:36:33.452Z,9.90
2018-07-20T07:39:01.666Z,11.47
2018-07-20T07:41:29.895Z,8.47
2018-07-20T07:43:58.191Z,8.83
2018-07-20T07:46:26.409Z,10.57
2018-07-20T07:48:54.710Z,10.00
2018-07-20T07:51:23.091Z,12.37
2018-07-20T07:53:51.372Z,7.90
2018-07-20T07:56:19.612Z,9.43
2018-07-20T07:58:47.811Z,10.30
2018-07-20T08:01:16.030Z,10.93
2018-07-20T08:03:44.265Z,9.07
2018-07-20T08:06:12.563Z,10.50
2018-07-20T08:08:40.782Z,10.03
2018-07-20T08:11:09.097Z,10.37
2018-07-20T08:13:37.324Z,8.77
2018-07-20T08:16:05.631Z,11.17
2018-07-20T08:18:33.912Z,9.00
2018-07-20T08:21:02.202Z,7.73
2018-07-20T08:23:30.463Z,8.07
2018-07-20T08:25:58.749Z,6.07
2018-07-20T08:28:27.112Z,9.90
2018-07-20T08:30:55.420Z,7.57
2018-07-20T08:33:23.686Z,8.73
2018-07-20T08:35:51.984Z,11.03
2018-07-20T08:38:20.222Z,9.93
2018-07-20T08:40:48.476Z,7.50
2018-07-20T08:43:16.721Z,9.30
2018-07-20T08:45:45.059Z,5.60
2018-07-20T08:48:13.515Z,5.93
2018-07-20T08:50:42.398Z,7.00
2018-07-20T08:53:10.639Z,8.27
2018-07-20T08:55:38.885Z,6.67
2018-07-20T08:58:07.180Z,6.20
2018-07-20T09:00:35.459Z,5.97
2018-07-20T09:03:03.731Z,5.83
2018-07-20T09:05:32.072Z,4.77
2018-07-20T09:08:00.341Z,5.37
2018-07-20T09:10:28.592Z,5.53
2018-07-20T09:12:56.832Z,5.97
2018-07-20T09:15:25.127Z,5.53
2018-07-20T09:17:53.402Z,5.37
2018-07-20T09:20:21.624Z,6.17
2018-07-20T09:22:49.914Z,7.90
2018-07-20T09:25:18.247Z,4.97
2018-07-20T09:27:46.515Z,5.07
2018-07-20T09:30:14.787Z,4.57
2018-07-20T09:32:43.115Z,6.20
2018-07-20T09:35:11.377Z,3.97
2018-07-20T09:37:39.697Z,4.03
2018-07-20T09:40:07.928Z,7.77
2018-07-20T09:42:36.644Z,5.00
2018-07-20T09:45:05.380Z,5.27
2018-07-20T09:47:33.624Z,5.73
2018-07-20T09:50:01.860Z,4.57
2018-07-20T09:52:30.132Z,3.90
2018-07-20T09:54:58.366Z,5.07
2018-07-20T09:57:26.580Z,4.07
2018-07-20T09:59:54.880Z,4.13
2018-07-20T10:02:23.163Z,6.00
2018-07-20T10:04:51.450Z,5.73
2018-07-20T10:07:19.676Z,5.90
2018-07-20T10:09:47.893Z,5.60
2018-07-20T10:12:16.121Z,6.30
2018-07-20T10:14:44.352Z,4.90
2018-07-20T10:17:13.827Z,12.43
2018-07-20T10:19:42.307Z,7.17
2018-07-20T10:22:10.711Z,6.03
2018-07-20T10:24:39.101Z,4.63
2018-07-20T10:29:36.027Z,5.53
2018-07-20T10:32:04.300Z,4.10
2018-07-20T10:34:32.593Z,5.20
2018-07-20T10:37:00.932Z,4.03
2018-07-20T10:39:29.203Z,4.17
2018-07-20T10:41:57.510Z,8.10
2018-07-20T10:44:25.830Z,5.07
2018-07-20T10:46:54.105Z,4.63
2018-07-20T10:49:22.407Z,5.53
2018-07-20T10:51:50.676Z,3.87
2018-07-20T10:54:18.928Z,3.40
2018-07-20T10:56:47.162Z,4.70
2018-07-20T10:59:15.440Z,3.00
2018-07-20T11:01:43.726Z,3.10
2018-07-20T11:04:12.025Z,4.03
2018-07-20T11:06:40.305Z,5.00
2018-07-20T11:09:09.042Z,3.27
2018-07-20T11:11:37.241Z,4.47
2018-07-20T11:14:05.472Z,3.17
2018-07-20T11:16:33.707Z,4.70
2018-07-20T11:19:01.980Z,4.40
2018-07-20T11:21:30.221Z,3.83
2018-07-20T11:23:58.484Z,5.50
2018-07-20T11:26:26.732Z,3.20
2018-07-20T11:28:54.967Z,4.03
2018-07-20T11:31:23.213Z,4.37
2018-07-20T11:33:51.575Z,4.70
2018-07-20T11:36:19.785Z,4.17
2018-07-20T11:38:47.987Z,4.80
2018-07-20T11:41:16.323Z,3.93
2018-07-20T11:43:44.563Z,3.93
2018-07-20T11:46:12.813Z,6.17
2018-07-20T11:48:41.144Z,5.23
2018-07-20T11:51:09.532Z,5.67
2018-07-20T11:53:37.783Z,3.80
2018-07-20T11:56:06.069Z,3.97
2018-07-20T11:58:34.297Z,5.77
2018-07-20T12:01:02.592Z,6.20
2018-07-20T12:03:30.786Z,3.90
2018-07-20T12:05:59.028Z,3.50
2018-07-20T12:08:27.382Z,3.53
2018-07-20T12:10:55.647Z,4.27
2018-07-20T12:13:23.884Z,4.77
2018-07-20T12:15:52.125Z,4.10
2018-07-20T12:18:20.375Z,4.17
2018-07-20T12:20:48.645Z,3.10
2018-07-20T12:23:16.854Z,3.77
2018-07-20T12:25:45.088Z,3.40
2018-07-20T12:28:13.437Z,4.03
2018-07-20T12:30:41.549Z,4.67
2018-07-20T12:33:09.977Z,5.73
2018-07-20T12:35:38.284Z,3.20
2018-07-20T12:38:06.599Z,4.90
2018-07-20T12:40:35.073Z,3.60
2018-07-20T12:43:03.323Z,5.47
2018-07-20T12:45:31.612Z,5.90
2018-07-20T12:47:59.839Z,3.00
2018-07-20T12:50:28.150Z,3.65
2018-07-20T12:52:56.322Z,4.93
2018-07-20T12:55:24.580Z,4.35
2018-07-20T12:57:52.816Z,3.60
2018-07-20T13:00:21.072Z,3.07
2018-07-20T13:02:49.333Z,6.10
2018-07-20T13:05:17.591Z,3.90
2018-07-20T13:07:46.435Z,4.28
2018-07-20T13:10:14.681Z,2.90
2018-07-20T13:12:42.916Z,3.00
2018-07-20T13:15:11.151Z,5.03
2018-07-20T13:17:39.485Z,4.47
2018-07-20T13:20:07.810Z,2.80
2018-07-20T13:22:36.064Z,3.27
2018-07-20T13:25:04.345Z,4.62
2018-07-20T13:27:32.575Z,3.42
2018-07-20T13:30:00.940Z,3.15
2018-07-20T13:32:29.156Z,3.90
2018-07-20T13:34:57.382Z,4.70
2018-07-20T13:37:25.606Z,3.47
2018-07-20T13:40:00.299Z,5.03
2018-07-20T13:42:28.649Z,3.55
2018-07-20T13:44:56.828Z,7.10
2018-07-20T13:47:25.297Z,4.12
2018-07-20T13:49:53.564Z,3.08
2018-07-20T13:52:21.881Z,3.83
2018-07-20T13:54:50.277Z,3.87
2018-07-20T13:57:18.587Z,4.17
2018-07-20T13:59:46.917Z,3.33
2018-07-20T14:02:15.127Z,4.97
2018-07-20T14:04:43.394Z,3.27
2018-07-20T14:07:11.607Z,4.35
2018-07-20T14:09:39.898Z,4.95
2018-07-20T14:12:08.237Z,4.20
2018-07-20T14:14:36.477Z,2.87
2018-07-20T14:17:04.695Z,3.90
2018-07-20T14:19:33.058Z,3.30
2018-07-20T14:22:01.268Z,2.98
2018-07-20T14:24:29.552Z,2.67
2018-07-20T14:26:57.786Z,4.33
2018-07-20T14:29:26.060Z,2.77
2018-07-20T14:31:54.365Z,4.45
2018-07-20T14:34:22.603Z,3.60
2018-07-20T14:36:50.830Z,2.98
2018-07-20T14:39:19.095Z,3.00
2018-07-20T14:41:47.300Z,2.60
2018-07-20T14:44:15.553Z,3.42
2018-07-20T14:46:43.780Z,5.08
2018-07-20T14:49:11.995Z,3.67
2018-07-20T14:51:40.284Z,3.55
2018-07-20T14:54:08.506Z,2.58
2018-07-20T14:56:38.038Z,3.72
2018-07-20T14:59:06.224Z,3.20
2018-07-20T15:01:34.508Z,4.62
2018-07-20T15:04:02.772Z,3.58
2018-07-20T15:06:31.016Z,4.05
2018-07-20T15:08:59.243Z,3.90
2018-07-20T15:11:27.474Z,4.97
2018-07-20T15:13:55.826Z,3.37
2018-07-20T15:16:24.044Z,4.72
2018-07-20T15:18:52.338Z,3.12
2018-07-20T15:21:20.561Z,4.85
2018-07-20T15:23:48.803Z,3.37
2018-07-20T15:26:17.004Z,3.47
2018-07-20T15:28:45.348Z,3.30
2018-07-20T15:31:13.603Z,3.52
2018-07-20T15:33:41.863Z,3.25
2018-07-20T15:36:10.005Z,3.25
2018-07-20T15:38:38.201Z,5.33
2018-07-20T15:41:06.833Z,5.15
2018-07-20T15:43:35.203Z,4.03
2018-07-20T15:46:06.482Z,3.25
2018-07-20T15:48:31.616Z,3.42
2018-07-20T15:50:59.820Z,6.78
2018-07-20T15:53:36.273Z,7.20
2018-07-20T15:55:56.359Z,3.25
2018-07-20T15:58:24.570Z,5.65
2018-07-20T16:00:52.892Z,3.52
2018-07-20T16:03:21.287Z,2.70
2018-07-20T16:05:54.712Z,5.42
2018-07-20T16:08:24.713Z,3.77
2018-07-20T16:10:52.976Z,5.10
2018-07-20T16:13:21.874Z,2.83
2018-07-20T16:15:57.978Z,4.72
2018-07-20T16:18:26.244Z,2.98
2018-07-20T16:20:54.523Z,4.72
2018-07-20T16:23:22.817Z,3.20
2018-07-20T16:25:51.141Z,4.50
2018-07-20T16:28:19.276Z,2.92
2018-07-20T16:30:47.556Z,4.33
2018-07-20T16:33:15.809Z,5.22
2018-07-20T16:35:44.017Z,4.05
2018-07-20T16:38:12.287Z,6.40
2018-07-20T16:40:40.517Z,3.27
2018-07-20T16:43:08.744Z,3.20
2018-07-20T16:45:37.020Z,6.42
2018-07-20T16:48:05.364Z,3.10
2018-07-20T16:50:33.709Z,4.47
2018-07-20T16:53:02.050Z,3.80
2018-07-20T16:55:30.698Z,2.83
2018-07-20T16:57:58.900Z,5.78
2018-07-20T17:00:27.181Z,5.92
2018-07-20T17:02:55.517Z,3.85
2018-07-20T17:05:23.703Z,4.83
2018-07-20T17:07:51.921Z,3.98
2018-07-20T17:10:20.277Z,3.65
2018-07-20T17:12:48.526Z,3.90
2018-07-20T17:15:16.721Z,3.98
2018-07-20T17:17:44.978Z,3.67
2018-07-20T17:20:13.208Z,5.17
2018-07-20T17:22:41.441Z,4.40
2018-07-20T17:25:09.380Z,3.60
2018-07-20T17:27:37.625Z,3.80
2018-07-20T17:30:05.959Z,4.13
2018-07-20T17:32:34.193Z,5.73
2018-07-20T17:35:02.434Z,4.27
2018-07-20T17:37:30.809Z,3.47
2018-07-20T17:39:59.081Z,2.57
2018-07-20T17:42:27.316Z,2.73
2018-07-20T17:44:55.555Z,7.47
2018-07-20T17:47:23.773Z,5.10
2018-07-20T17:49:52.033Z,4.13
2018-07-20T17:52:20.248Z,2.90
2018-07-20T17:54:48.576Z,5.03
2018-07-20T17:57:16.808Z,3.80
2018-07-20T17:59:45.118Z,3.53
2018-07-20T18:02:13.394Z,2.97
2018-07-20T18:04:41.553Z,3.40
2018-07-20T18:07:09.803Z,3.10
2018-07-20T18:09:38.080Z,3.30
2018-07-20T18:12:06.345Z,3.40
2018-07-20T18:14:34.551Z,2.60
2018-07-20T18:17:03.432Z,2.37
2018-07-20T18:19:31.664Z,2.90
2018-07-20T18:21:59.905Z,3.20
2018-07-20T18:24:28.119Z,2.83
2018-07-20T18:26:56.346Z,2.80
2018-07-20T18:29:25.261Z,4.80
2018-07-20T18:31:53.243Z,2.93
2018-07-20T18:34:22.390Z,3.17
2018-07-20T18:36:50.642Z,4.80
2018-07-20T18:39:18.904Z,4.17
2018-07-20T18:41:47.166Z,3.70
2018-07-20T18:44:15.397Z,3.63
2018-07-20T18:46:43.600Z,3.70
2018-07-20T18:49:11.849Z,3.87
2018-07-20T18:51:40.227Z,4.97
2018-07-20T18:54:08.545Z,4.03
2018-07-20T18:56:36.745Z,3.43
2018-07-20T18:59:05.053Z,5.00
2018-07-20T19:01:33.306Z,6.63
2018-07-20T19:04:01.561Z,5.63
2018-07-20T19:06:29.769Z,4.10
2018-07-20T19:08:57.988Z,8.20
2018-07-20T19:11:26.306Z,5.23
2018-07-20T19:13:54.553Z,4.57
2018-07-20T19:16:22.776Z,5.33
2018-07-20T19:18:51.048Z,4.40
2018-07-20T19:21:19.344Z,5.63
2018-07-20T19:23:47.616Z,4.97
2018-07-20T19:26:15.872Z,4.50
2018-07-20T19:28:44.149Z,4.70
2018-07-20T19:31:12.372Z,6.00
2018-07-20T19:33:40.606Z,4.20
2018-07-20T19:36:08.812Z,4.10
2018-07-20T19:38:37.064Z,4.40
2018-07-20T19:41:05.333Z,4.37
2018-07-20T19:43:33.548Z,4.43
2018-07-20T19:46:01.781Z,4.70
2018-07-20T19:48:30.046Z,4.10
2018-07-20T19:50:58.337Z,4.20
2018-07-20T19:53:26.609Z,4.37
2018-07-20T19:55:54.864Z,5.13
2018-07-20T19:58:23.127Z,4.37
2018-07-20T20:00:51.416Z,4.70
2018-07-20T20:03:19.921Z,4.47
2018-07-20T20:05:48.212Z,4.97
2018-07-20T20:08:16.427Z,4.90
2018-07-20T20:10:44.708Z,4.97
2018-07-20T20:13:12.940Z,5.10
2018-07-20T20:15:41.258Z,5.00
2018-07-20T20:18:09.872Z,4.70
2018-07-20T20:20:38.081Z,5.93
2018-07-20T20:23:06.320Z,5.17
2018-07-20T20:25:34.618Z,5.13
2018-07-20T20:28:02.829Z,6.03
2018-07-20T20:30:31.076Z,5.30
2018-07-20T20:32:59.279Z,6.53
2018-07-20T20:35:27.543Z,5.53
2018-07-20T20:37:55.748Z,5.73
2018-07-20T20:40:24.011Z,5.63
2018-07-20T20:42:52.207Z,5.77
2018-07-20T20:45:20.533Z,7.07
2018-07-20T20:47:48.817Z,5.63
2018-07-20T20:50:17.036Z,7.33
2018-07-20T20:52:45.413Z,6.07
2018-07-20T20:55:13.706Z,5.90
2018-07-20T20:57:41.965Z,5.30
2018-07-20T21:00:10.435Z,6.43
2018-07-20T21:02:38.658Z,6.10
2018-07-20T21:05:06.992Z,6.57
2018-07-20T21:07:35.260Z,6.77
2018-07-20T21:10:03.828Z,6.57
2018-07-20T21:12:32.035Z,5.93
2018-07-20T21:15:00.245Z,7.37
2018-07-20T21:17:28.492Z,6.17
2018-07-20T21:19:56.800Z,5.93
2018-07-20T21:22:25.093Z,5.90
2018-07-20T21:24:53.336Z,6.60
2018-07-20T21:27:21.624Z,6.97
2018-07-20T21:29:49.878Z,6.83
2018-07-20T21:32:18.280Z,7.67
2018-07-20T21:34:46.572Z,6.13
2018-07-20T21:37:14.806Z,5.37
2018-07-20T21:39:43.240Z,5.07
2018-07-20T21:42:11.581Z,6.70
2018-07-20T21:44:39.851Z,8.00
2018-07-20T21:47:08.065Z,6.67
2018-07-20T21:49:36.441Z,7.40
2018-07-20T21:52:04.708Z,6.43
2018-07-20T21:54:33.004Z,6.70
2018-07-20T21:57:07.856Z,7.13
2018-07-20T21:59:36.220Z,6.53
2018-07-20T22:02:04.564Z,6.80
2018-07-20T22:04:34.027Z,5.87
2018-07-20T22:07:02.518Z,7.37
2018-07-20T22:09:30.861Z,7.40
2018-07-20T22:12:00.046Z,8.40
2018-07-20T22:14:28.711Z,7.60
2018-07-20T22:16:57.304Z,7.33
2018-07-20T22:19:27.580Z,6.50
2018-07-20T22:22:05.049Z,6.87
2018-07-20T22:24:41.787Z,7.80
2018-07-20T22:27:20.506Z,6.87
2018-07-20T22:29:48.744Z,7.10
2018-07-20T22:32:16.973Z,7.90
2018-07-20T22:34:45.272Z,6.37
2018-07-20T22:37:13.626Z,6.70
2018-07-20T22:39:41.834Z,7.03
2018-07-20T22:42:10.096Z,9.10
2018-07-20T22:44:38.337Z,6.77
2018-07-20T22:47:06.543Z,9.03
2018-07-20T22:49:34.763Z,7.50
2018-07-20T22:52:03.104Z,8.40
2018-07-20T22:54:31.345Z,7.90
2018-07-20T22:56:59.575Z,7.20
2018-07-20T22:59:27.932Z,7.07
2018-07-20T23:01:56.138Z,8.17
2018-07-20T23:04:24.440Z,7.87
2018-07-20T23:06:52.649Z,7.43
2018-07-20T23:09:20.901Z,7.53
2018-07-20T23:11:49.136Z,6.50
2018-07-20T23:14:17.372Z,6.47
2018-07-20T23:16:45.582Z,9.43
2018-07-20T23:19:13.781Z,6.97
2018-07-20T23:21:41.972Z,10.40
2018-07-20T23:24:10.224Z,9.03
2018-07-20T23:26:38.430Z,7.93
2018-07-20T23:29:07.748Z,6.63
2018-07-20T23:31:35.896Z,8.67
2018-07-20T23:34:04.129Z,7.07
2018-07-20T23:36:32.348Z,7.00
2018-07-20T23:39:01.388Z,7.27
2018-07-20T23:41:29.872Z,9.43
2018-07-20T23:43:58.094Z,9.27
2018-07-20T23:46:26.364Z,8.30
2018-07-20T23:48:54.632Z,7.43
2018-07-20T23:51:26.240Z,9.30
2018-07-20T23:53:54.467Z,6.70
2018-07-20T23:56:22.715Z,11.27
2018-07-20T23:58:50.906Z,8.13
